Flight Track Log - Related Links

Times and Time Zones

All times are in EDT time to prevent confusion due to time zone crossing. See the ASQ5750 flight status page for this flight to view local times or setup timezone preferences in your user account.

Time Position Orientation Groundspeed Altitude Reporting Facility
EDT Latitude Longitude Course Direction KTS MPH feet Rate Location/Type
Thu 11:30:28 AM 39.0500 -84.6833 351° North 153 176 1,500  Level Cincinnati TRACON
Thu 11:31:04 AM 39.0500 -84.7167 270° West 162 186 2,700 2,500 Climbing Cincinnati TRACON
Thu 11:32:04 AM 39.0667 -84.8000 284° West 260 299 5,500 2,769 Climbing Cincinnati TRACON
Thu 11:34:06 AM 39.1986 -84.8689 338° Northwest 268 308 11,100 2,446 Climbing Indianapolis Center
Thu 11:35:00 AM 38.9466 -84.8385 313° West  Level FlightAware Approximate
Thu 11:35:08 AM 39.2811 -84.9217 334° Northwest 297 342 13,000  Level Indianapolis Center
Thu 11:36:00 AM 39.0270 -84.8854 351° North  Level FlightAware Approximate
Thu 11:36:10 AM 39.3622 -84.9700 335° Northwest 313 360 15,200  Level Indianapolis Center
Thu 11:37:12 AM 39.4433 -85.0203 334° Northwest 320 368 16,900 1,463 Climbing Indianapolis Center
Thu 11:38:13 AM 39.5294 -85.0731 335° Northwest 336 387 18,200 1,610 Climbing Indianapolis Center
Thu 11:39:15 AM 39.6167 -85.1264 335° Northwest 343 395 20,200 1,839 Climbing Indianapolis Center
Thu 11:40:17 AM 39.6981 -85.1775 334° Northwest 328 377 22,000 871 Climbing Indianapolis Center
Thu 11:41:19 AM 39.7800 -85.2278 335° Northwest 324 373 22,000  Level Indianapolis Center
Thu 11:42:21 AM 39.8711 -85.2853 334° Northwest 313 360 22,000  Level Indianapolis Center
Thu 11:43:23 AM 39.9508 -85.3353 334° Northwest 315 362 22,000  Level Indianapolis Center
Thu 11:44:25 AM 40.0292 -85.3842 334° Northwest 313 360 22,000  Level Indianapolis Center
Thu 11:45:26 AM 40.1075 -85.4344 334° Northwest 313 360 22,000  Level Indianapolis Center
Thu 11:45:56 AM 40.1453 -85.4569 336° Northwest 309 356 22,000  Level Chicago Center
Thu 11:46:58 AM 40.2233 -85.5053 335° Northwest 309 356 22,000  Level Chicago Center
Thu 11:48:00 AM 40.3014 -85.5539 335° Northwest 310 357 22,000  Level Chicago Center
Thu 11:49:02 AM 40.3781 -85.6036 334° Northwest 307 353 22,000  Level Chicago Center
Thu 11:50:04 AM 40.4681 -85.6606 334° Northwest 307 353 22,000  Level Chicago Center
Thu 11:51:06 AM 40.5503 -85.7000 340° North 311 358 22,000  Level Chicago Center
Thu 11:52:08 AM 40.6381 -85.7328 344° North 324 373 22,000  Level Chicago Center
Thu 11:53:10 AM 40.7400 -85.7747 343° North 344 396 22,000  Level Chicago Center
Thu 11:54:12 AM 40.8211 -85.8317 332° Northwest 338 389 22,000  Level Chicago Center
Thu 11:55:15 AM 40.8881 -85.9203 315° West 340 391 22,000  Level Chicago Center
Thu 11:56:17 AM 40.9592 -86.0131 315° West 355 409 22,000 -290 Level Chicago Center
Thu 11:57:19 AM 41.0294 -86.1050 315° West 355 409 21,400 -774 Descending Chicago Center
Thu 11:58:21 AM 41.0983 -86.1956 315° West 349 402 20,400 -968 Descending Chicago Center
Thu 11:59:23 AM 41.1664 -86.2864 315° West 346 398 19,400 -1,065 Descending Chicago Center
Thu 12:00:25 PM 41.2522 -86.4000 315° West 361 415 18,200 -968 Descending Chicago Center
Thu 12:01:27 PM 41.3342 -86.4803 324° Northwest 364 419 17,400 -871 Descending Chicago Center
Thu 12:02:29 PM 41.4147 -86.5589 324° Northwest 361 415 16,400 -968 Descending Chicago Center
Thu 12:03:31 PM 41.4917 -86.6347 324° Northwest 349 402 15,400 -1,161 Descending Chicago Center
Thu 12:04:33 PM 41.5650 -86.7053 324° Northwest 333 383 14,000 -1,548 Descending Chicago Center
Thu 12:05:35 PM 41.6375 -86.7739 325° Northwest 324 373 12,200 -1,210 Descending Chicago Center
Thu 12:06:37 PM 41.7406 -86.8047 347° North 329 379 11,500 -581 Descending Chicago Center
Thu 12:07:39 PM 41.8272 -86.8214 352° North 319 367 11,000 -624 Descending Chicago Center
Thu 12:08:42 PM 41.9011 -86.8811 329° Northwest 322 371 10,200 -480 Descending Chicago Center
Thu 12:09:44 PM 41.9244 -86.9939 286° West 314 361 10,000 -145 Descending Chicago Center
Thu 12:10:46 PM 41.9578 -87.1267 289° West 315 362 9,900 -871 Descending Chicago Center
Thu 12:11:48 PM 41.9772 -87.2172 286° West 267 307 8,200 -1,403 Descending Chicago Center
Thu 12:12:50 PM 41.9844 -87.3111 276° West 255 293 7,000 -581 Descending Chicago Center
Thu 12:13:52 PM 41.9836 -87.4036 269° West 251 289 7,000 73 Level Chicago Center
Thu 12:14:12 PM 41.9833 -87.4333 269° West 249 287 7,100 -375 Climbing Chicago TRACON
Thu 12:15:12 PM 41.9833 -87.5333 270° West 230 265 6,500 -1,050 Descending Chicago TRACON
Thu 12:16:12 PM 41.9833 -87.6167 270° West 233 268 5,000 -1,400 Descending Chicago TRACON
Thu 12:17:12 PM 41.9833 -87.7000 270° West 219 252 3,700 -1,300 Descending Chicago TRACON

Login

Don't have an account? Register now (free) for customized features, flight alerts, and more!